.
WxDataArchive / Data Records for 2010-03-24
2010-03-23 March 2010 2010-03-25

Data Records for Wednesday, 24 March 2010

Time	Temp	Chill	HIndex	Humid	Dewpt	 Wind 	HiWind	WindDir	Rain 	Barom 
-----	----	-----	------	-----	-----	------	------	-------	-----	----- 
00:00	39.9	39.9	39.9	57	25.9	0	0	---	0.00	30.004 
00:05	39.6	39.6	39.6	58	26.1	0	0	---	0.00	30.004 
00:10	39.5	39.5	39.5	59	26.4	0	0	---	0.00	30.004 
00:15	39.2	39.2	39.2	60	26.5	0	0	---	0.00	30.002 
00:20	39.1	39.1	39.1	59	26.0	0	0	---	0.00	30.002 
00:25	38.9	38.9	38.9	60	26.2	0	0	---	0.00	30.002 
00:30	38.8	38.8	38.8	60	26.1	0	0	---	0.00	30.014 
00:35	38.6	38.6	38.6	60	25.9	0	0	---	0.00	30.014 
00:40	38.6	38.6	38.6	60	25.9	0	0	---	0.00	30.014 
00:45	38.3	38.3	38.3	60	25.6	0	0	---	0.00	30.013 
00:50	38.0	38.0	38.0	61	25.8	0	0	---	0.00	30.013 
00:55	37.8	37.8	37.8	61	25.6	0	0	---	0.00	30.013 
01:00	37.5	37.5	37.5	62	25.7	0	0	---	0.00	30.002 
01:05	37.2	37.2	37.2	63	25.8	0	0	---	0.00	30.002 
01:10	36.9	36.9	36.9	64	25.9	0	0	---	0.00	30.002 
01:15	36.9	36.9	36.9	65	26.3	0	0	---	0.00	30.011 
01:20	36.8	36.8	36.8	65	26.2	0	0	---	0.00	30.011 
01:25	36.8	36.8	36.8	65	26.2	0	0	---	0.00	30.011 
01:30	36.6	36.6	36.6	66	26.3	0	0	---	0.00	30.016 
01:35	36.5	36.5	36.5	66	26.2	0	0	---	0.00	30.016 
01:40	36.2	36.2	36.2	67	26.3	0	0	---	0.00	30.016 
01:45	36.0	36.0	36.0	67	26.1	0	0	---	0.00	30.018 
01:50	35.9	35.9	35.9	67	26.0	0	0	---	0.00	30.018 
01:55	35.6	35.6	35.6	67	25.7	0	0	---	0.00	30.018 
02:00	35.3	35.3	35.3	68	25.8	0	0	---	0.00	30.021 
02:05	35.0	35.0	35.0	69	25.9	0	0	---	0.00	30.021 
02:10	34.9	34.9	34.9	70	26.1	0	0	---	0.00	30.021 
02:15	34.7	34.7	34.7	70	25.9	0	0	---	0.00	30.025 
02:20	34.4	34.4	34.4	71	26.0	0	0	---	0.00	30.025 
02:25	34.3	34.3	34.3	72	26.2	0	0	---	0.00	30.025 
02:30	34.0	34.0	34.0	73	26.3	0	0	---	0.00	30.027 
02:35	33.8	33.8	33.8	73	26.1	0	0	---	0.00	30.027 
02:40	33.5	33.5	33.5	74	26.1	0	0	---	0.00	30.027 
02:45	33.4	33.4	33.4	75	26.3	0	0	---	0.00	30.026 
02:50	33.2	33.2	33.2	76	26.5	0	0	---	0.00	30.026 
02:55	33.2	33.2	33.2	76	26.5	0	0	---	0.00	30.026 
03:00	33.1	33.1	33.1	77	26.7	0	0	---	0.00	30.022 
03:05	33.1	33.1	33.1	77	26.7	0	0	---	0.00	30.022 
03:10	32.9	32.9	32.9	77	26.5	0	0	---	0.00	30.022 
03:15	32.9	32.9	32.9	77	26.5	0	0	---	0.00	30.018 
03:20	32.8	32.8	32.8	77	26.4	0	0	---	0.00	30.018 
03:25	32.8	32.8	32.8	77	26.4	0	0	---	0.00	30.018 
03:30	32.8	32.8	32.8	77	26.4	0	0	---	0.00	30.016 
03:35	32.8	32.8	32.8	77	26.4	0	0	---	0.00	30.016 
03:40	32.8	32.8	32.8	77	26.4	0	0	---	0.00	30.016 
03:45	32.8	32.8	32.8	77	26.4	0	0	---	0.00	30.015 
03:50	32.7	32.7	32.7	77	26.3	0	0	---	0.00	30.015 
03:55	32.7	32.7	32.7	77	26.3	0	0	---	0.00	30.015 
04:00	32.7	32.7	32.7	77	26.3	0	0	---	0.00	30.016 
04:05	32.7	32.7	32.7	77	26.3	0	0	---	0.00	30.016 
04:10	32.5	32.5	32.5	76	25.8	0	0	---	0.00	30.016 
04:15	32.4	32.4	32.4	76	25.7	0	0	---	0.00	30.018 
04:20	32.4	32.4	32.4	76	25.7	0	0	---	0.00	30.018 
04:25	32.2	32.2	32.2	77	25.8	0	0	---	0.00	30.018 
04:30	32.1	32.1	32.1	77	25.7	0	0	---	0.00	30.016 
04:35	31.9	31.9	31.9	77	25.5	0	0	---	0.00	30.016 
04:40	31.9	31.9	31.9	77	25.5	0	0	---	0.00	30.016 
04:45	31.9	31.9	31.9	78	25.8	0	0	---	0.00	30.015 
04:50	31.9	31.9	31.9	78	25.8	0	0	---	0.00	30.015 
04:55	31.8	31.8	31.8	78	25.7	0	0	---	0.00	30.015 
05:00	31.8	31.8	31.8	78	25.7	0	0	---	0.00	30.017 
05:05	31.6	31.6	31.6	78	25.5	0	0	---	0.00	30.017 
05:10	31.5	31.5	31.5	78	25.4	0	0	---	0.00	30.017 
05:15	31.5	31.5	31.5	79	25.8	0	0	---	0.00	30.021 
05:20	31.5	31.5	31.5	79	25.8	0	0	---	0.00	30.021 
05:25	31.3	31.3	31.3	79	25.6	0	0	---	0.00	30.021 
05:30	31.2	31.2	31.2	79	25.5	0	0	---	0.00	30.021 
05:35	31.0	31.0	31.0	79	25.3	0	0	---	0.00	30.021 
05:40	31.0	31.0	31.0	79	25.3	0	0	---	0.00	30.021 
05:45	31.0	31.0	31.0	79	25.3	0	0	---	0.00	30.036 
05:50	31.2	31.2	31.2	79	25.5	0	0	---	0.00	30.036 
05:55	31.2	31.2	31.2	79	25.5	0	0	---	0.00	30.036 
06:00	31.2	31.2	31.2	79	25.5	0	0	---	0.00	30.043 
06:05	31.3	31.3	31.3	80	25.9	0	0	---	0.00	30.043 
06:10	31.3	31.3	31.3	80	25.9	0	0	---	0.00	30.043 
06:15	31.3	31.3	31.3	80	25.9	0	0	---	0.00	30.048 
06:20	31.2	31.2	31.2	80	25.8	0	0	---	0.00	30.048 
06:25	31.0	31.0	31.0	80	25.6	0	0	---	0.00	30.048 
06:30	31.0	31.0	31.0	80	25.6	0	0	---	0.00	30.048 
06:35	30.9	30.9	30.9	80	25.5	0	0	---	0.00	30.048 
06:40	30.7	30.7	30.7	80	25.3	0	0	---	0.00	30.048 
06:45	30.6	30.6	30.6	81	25.5	0	0	---	0.00	30.051 
06:50	30.6	30.6	30.6	81	25.5	0	0	---	0.00	30.051 
06:55	30.4	30.4	30.4	81	25.3	0	0	---	0.00	30.051 
07:00	30.3	30.3	30.3	81	25.2	0	0	---	0.00	30.062 
07:05	30.1	30.1	30.1	81	25.0	0	0	---	0.00	30.062 
07:10	30.1	30.1	30.1	81	25.0	0	0	---	0.00	30.062 
07:15	30.1	30.1	30.1	81	25.0	0	0	---	0.00	30.067 
07:20	30.0	30.0	30.0	82	25.2	0	0	---	0.00	30.067 
07:25	30.0	30.0	30.0	82	25.2	0	0	---	0.00	30.067 
07:30	30.0	30.0	30.0	83	25.5	0	0	---	0.00	30.071 
07:35	30.1	30.1	30.1	83	25.6	0	0	---	0.00	30.071 
07:40	30.1	30.1	30.1	83	25.6	0	0	---	0.00	30.071 
07:45	30.1	30.1	30.1	83	25.6	0	0	---	0.00	30.082 
07:50	30.1	30.1	30.1	82	25.3	0	0	---	0.00	30.082 
07:55	30.3	30.3	30.3	81	25.2	0	0	---	0.00	30.082 
08:00	30.6	30.6	30.6	81	25.5	0	0	---	0.00	30.091 
08:05	30.9	30.9	30.9	80	25.5	0	0	---	0.00	30.091 
08:10	31.3	31.3	31.3	79	25.6	0	0	---	0.00	30.091 
08:15	31.9	31.9	31.9	79	26.1	0	0	---	0.00	30.087 
08:20	32.4	32.4	32.4	79	26.6	0	0	---	0.00	30.087 
08:25	32.9	32.9	32.9	78	26.8	0	0	---	0.00	30.087 
08:30	33.7	33.7	33.7	75	26.6	0	1	292	0.00	30.092 
08:35	34.3	34.3	34.3	74	26.9	0	0	---	0.00	30.092 
08:40	35.0	35.0	35.0	72	26.9	0	0	---	0.00	30.092 
08:45	35.9	35.9	35.9	68	26.4	0	1	292	0.00	30.084 
08:50	37.0	37.0	37.0	62	25.2	0	1	292	0.00	30.084 
08:55	38.0	38.0	38.0	58	24.6	0	0	---	0.00	30.084 
09:00	38.8	38.8	38.8	57	24.9	0	1	292	0.00	30.086 
09:05	39.5	39.5	39.5	56	25.1	0	1	292	0.00	30.086 
09:10	40.1	40.1	40.1	52	23.9	0	2	292	0.00	30.086 
09:15	40.5	40.5	40.5	51	23.8	0	1	292	0.00	30.092 
09:20	41.1	41.1	41.1	50	23.9	0	1	292	0.00	30.092 
09:25	41.5	41.5	41.5	50	24.3	0	2	315	0.00	30.092 
09:30	41.9	41.9	41.9	50	24.6	0	1	315	0.00	30.094 
09:35	42.5	42.5	42.5	49	24.7	0	1	315	0.00	30.094 
09:40	42.9	42.9	42.9	50	25.6	0	1	315	0.00	30.094 
09:45	43.5	43.5	43.5	48	25.1	0	1	45	0.00	30.096 
09:50	43.9	43.9	43.9	48	25.5	0	1	45	0.00	30.096 
09:55	44.5	44.5	44.5	49	26.5	0	1	45	0.00	30.096 
10:00	45.2	45.2	45.2	46	25.7	0	2	45	0.00	30.096 
10:05	45.8	45.8	45.8	47	26.7	0	1	45	0.00	30.096 
10:10	46.4	46.4	46.4	46	26.8	0	1	45	0.00	30.096 
10:15	47.1	47.1	47.1	47	27.9	0	3	45	0.00	30.096 
10:20	47.7	47.7	47.7	45	27.4	0	3	68	0.00	30.096 
10:25	48.2	48.2	48.2	43	26.8	0	2	68	0.00	30.096 
10:30	48.8	48.8	48.8	44	27.9	1	4	68	0.00	30.097 
10:35	49.4	49.4	49.4	43	27.9	0	2	90	0.00	30.097 
10:40	49.8	49.8	49.8	41	27.1	1	4	90	0.00	30.097 
10:45	49.9	49.9	49.9	38	25.3	2	5	90	0.00	30.099 
10:50	50.2	50.2	50.2	42	28.0	1	4	90	0.00	30.099 
10:55	50.5	50.5	50.5	39	26.5	0	3	90	0.00	30.099 
11:00	50.7	50.7	50.7	35	24.1	1	4	90	0.00	30.095 
11:05	50.8	50.8	50.8	41	28.0	1	4	68	0.00	30.095 
11:10	51.0	51.0	51.0	36	25.0	1	6	112	0.00	30.095 
11:15	51.1	51.1	51.1	39	27.0	1	3	112	0.00	30.099 
11:20	51.1	51.1	51.1	36	25.1	1	5	112	0.00	30.099 
11:25	51.1	51.1	51.1	37	25.7	2	4	90	0.00	30.099 
11:30	51.1	51.1	51.1	38	26.4	2	5	90	0.00	30.097 
11:35	51.3	51.3	51.3	38	26.6	2	7	90	0.00	30.097 
11:40	51.6	51.6	51.6	38	26.8	2	5	112	0.00	30.097 
11:45	51.7	51.7	51.7	37	26.3	2	5	112	0.00	30.098 
11:50	51.7	51.7	51.7	39	27.6	1	4	112	0.00	30.098 
11:55	52.0	52.0	52.0	36	25.9	1	5	45	0.00	30.098 
12:00	52.2	52.2	52.2	34	24.7	2	4	90	0.00	30.100 
12:05	52.3	52.3	52.3	35	25.5	1	5	90	0.00	30.100 
12:10	52.8	52.8	52.8	36	26.6	1	3	90	0.00	30.100 
12:15	52.8	52.8	52.8	35	25.9	2	6	112	0.00	30.106 
12:20	52.6	52.6	52.6	34	25.0	2	5	112	0.00	30.106 
12:25	52.6	52.6	52.6	33	24.3	1	4	90	0.00	30.106 
12:30	52.6	52.6	52.6	34	25.0	1	3	90	0.00	30.107 
12:35	52.6	52.6	52.6	34	25.0	1	3	90	0.00	30.107 
12:40	52.8	52.8	52.8	36	26.6	1	4	90	0.00	30.107 
12:45	52.8	52.8	52.8	33	24.5	2	6	90	0.00	30.110 
12:50	53.1	53.1	53.1	34	25.5	1	4	90	0.00	30.110 
12:55	53.3	53.3	53.3	35	26.4	1	3	90	0.00	30.110 
13:00	53.2	53.2	53.2	32	24.1	2	4	112	0.00	30.107 
13:05	53.1	53.1	53.1	31	23.3	2	4	112	0.00	30.107 
13:10	52.9	52.9	52.9	32	23.9	1	5	90	0.00	30.107 
13:15	53.1	53.1	53.1	35	26.2	0	2	90	0.00	30.106 
13:20	53.3	53.3	53.3	33	24.9	1	6	112	0.00	30.106 
13:25	53.6	53.6	53.6	34	25.9	0	4	112	0.00	30.106 
13:30	53.9	53.9	53.9	30	23.2	1	5	112	0.00	30.104 
13:35	54.1	54.1	54.1	31	24.1	2	5	112	0.00	30.104 
13:40	53.9	53.9	53.9	30	23.2	2	5	90	0.00	30.104 
13:45	53.9	53.9	53.9	27	20.7	1	4	90	0.00	30.103 
13:50	53.9	53.9	53.9	28	21.6	1	3	112	0.00	30.103 
13:55	53.9	53.9	53.9	32	24.7	1	5	158	0.00	30.103 
14:00	53.9	53.9	53.9	28	21.6	1	5	112	0.00	30.094 
14:05	54.1	54.1	54.1	30	23.4	0	3	90	0.00	30.094 
14:10	54.4	54.4	54.4	28	22.0	1	4	90	0.00	30.094 
14:15	54.5	54.5	54.5	29	22.9	2	6	112	0.00	30.084 
14:20	54.4	54.4	54.4	28	22.0	2	5	112	0.00	30.084 
14:25	54.5	54.5	54.5	29	22.9	2	5	112	0.00	30.084 
14:30	54.8	54.8	54.8	28	22.3	1	3	112	0.00	30.081 
14:35	54.8	54.8	54.8	29	23.2	2	5	112	0.00	30.081 
14:40	54.8	54.8	54.8	31	24.8	2	5	112	0.00	30.081 
14:45	55.1	55.1	55.1	27	21.7	1	3	90	0.00	30.076 
14:50	55.1	55.1	55.1	28	22.6	2	5	90	0.00	30.076 
14:55	55.1	55.1	55.1	28	22.6	2	5	90	0.00	30.076 
15:00	55.1	55.1	55.1	27	21.7	2	5	112	0.00	30.066 
15:05	55.1	55.1	55.1	28	22.6	2	6	90	0.00	30.066 
15:10	55.1	55.1	55.1	28	22.6	2	5	112	0.00	30.066 
15:15	55.3	55.3	55.3	30	24.4	2	5	112	0.00	30.054 
15:20	55.3	55.3	55.3	28	22.8	2	7	135	0.00	30.054 
15:25	55.3	55.3	55.3	27	21.9	2	6	90	0.00	30.054 
15:30	55.4	55.4	55.4	28	22.8	2	4	112	0.00	30.044 
15:35	55.6	55.6	55.6	28	23.0	2	4	112	0.00	30.044 
15:40	56.0	56.0	56.0	27	22.5	2	6	112	0.00	30.044 
15:45	56.2	56.2	56.2	28	23.5	3	9	90	0.00	30.042 
15:50	56.3	56.3	56.3	31	26.1	2	4	90	0.00	30.042 
15:55	56.6	56.6	56.6	25	21.2	1	5	112	0.00	30.042 
16:00	57.0	57.0	57.0	28	24.2	1	3	112	0.00	30.045 
16:05	57.2	57.2	57.2	27	23.5	1	4	112	0.00	30.045 
16:10	57.2	57.2	57.2	25	21.7	0	2	112	0.00	30.045 
16:15	57.5	57.5	57.5	30	26.3	1	3	135	0.00	30.043 
16:20	57.5	57.5	57.5	28	24.7	1	4	135	0.00	30.043 
16:25	57.0	57.0	57.0	28	24.2	2	6	112	0.00	30.043 
16:30	56.7	56.7	56.7	27	23.1	2	6	90	0.00	30.042 
16:35	56.6	56.6	56.6	28	23.9	0	5	135	0.00	30.042 
16:40	56.6	56.6	56.6	27	23.0	0	2	22	0.00	30.042 
16:45	56.6	56.6	56.6	30	25.5	1	4	90	0.00	30.037 
16:50	56.6	56.6	56.6	30	25.5	1	5	90	0.00	30.037 
16:55	56.6	56.6	56.6	28	23.9	1	4	112	0.00	30.037 
17:00	56.6	56.6	56.6	28	23.9	0	2	112	0.00	30.041 
17:05	56.6	56.6	56.6	28	23.9	1	4	112	0.00	30.041 
17:10	56.6	56.6	56.6	28	23.9	2	4	112	0.00	30.041 
17:15	56.5	56.5	56.5	26	22.0	2	6	90	0.00	30.035 
17:20	56.5	56.5	56.5	28	23.8	1	5	90	0.00	30.035 
17:25	56.5	56.5	56.5	26	22.0	1	4	112	0.00	30.035 
17:30	56.5	56.5	56.5	28	23.8	1	4	112	0.00	30.035 
17:35	56.3	56.3	56.3	26	21.9	2	4	68	0.00	30.035 
17:40	56.2	56.2	56.2	27	22.7	0	2	135	0.00	30.035 
17:45	56.2	56.2	56.2	28	23.5	1	4	135	0.00	30.042 
17:50	56.2	56.2	56.2	26	21.8	0	3	135	0.00	30.042 
17:55	56.2	56.2	56.2	27	22.7	1	4	135	0.00	30.042 
18:00	56.2	56.2	56.2	27	22.7	1	4	112	0.00	30.046 
18:05	56.2	56.2	56.2	28	23.5	1	2	112	0.00	30.046 
18:10	56.0	56.0	56.0	26	21.6	2	4	112	0.00	30.046 
18:15	55.9	55.9	55.9	27	22.4	2	4	112	0.00	30.036 
18:20	55.9	55.9	55.9	28	23.3	1	4	112	0.00	30.036 
18:25	55.9	55.9	55.9	28	23.3	2	5	112	0.00	30.036 
18:30	55.7	55.7	55.7	28	23.1	2	4	112	0.00	30.027 
18:35	55.6	55.6	55.6	29	23.9	1	3	112	0.00	30.027 
18:40	55.6	55.6	55.6	28	23.0	0	3	112	0.00	30.027 
18:45	55.6	55.6	55.6	29	23.9	0	2	112	0.00	30.035 
18:50	55.4	55.4	55.4	30	24.5	1	2	112	0.00	30.035 
18:55	55.4	55.4	55.4	30	24.5	1	2	112	0.00	30.035 
19:00	55.3	55.3	55.3	30	24.4	1	3	112	0.00	30.039 
19:05	55.3	55.3	55.3	30	24.4	1	3	112	0.00	30.039 
19:10	55.1	55.1	55.1	30	24.2	1	3	112	0.00	30.039 
19:15	55.0	55.0	55.0	31	24.9	1	2	112	0.00	30.032 
19:20	54.8	54.8	54.8	31	24.8	1	3	112	0.00	30.032 
19:25	54.8	54.8	54.8	32	25.5	0	4	112	0.00	30.032 
19:30	54.7	54.7	54.7	32	25.4	0	1	112	0.00	30.034 
19:35	54.5	54.5	54.5	33	26.0	0	2	112	0.00	30.034 
19:40	54.4	54.4	54.4	35	27.3	0	1	112	0.00	30.034 
19:45	54.2	54.2	54.2	36	27.8	0	0	---	0.00	30.028 
19:50	53.9	53.9	53.9	37	28.2	0	1	112	0.00	30.028 
19:55	53.6	53.6	53.6	37	28.0	0	0	---	0.00	30.028 
20:00	53.3	53.3	53.3	37	27.7	0	1	112	0.00	30.024 
20:05	53.1	53.1	53.1	38	28.2	0	0	---	0.00	30.024 
20:10	52.8	52.8	52.8	39	28.5	0	0	---	0.00	30.024 
20:15	52.2	52.2	52.2	39	28.0	0	0	---	0.00	30.023 
20:20	51.7	51.7	51.7	43	29.9	0	0	---	0.00	30.023 
20:25	51.3	51.3	51.3	43	29.6	0	0	---	0.00	30.023 
20:30	50.7	50.7	50.7	43	29.0	0	0	---	0.00	30.016 
20:35	50.2	50.2	50.2	45	29.7	0	0	---	0.00	30.016 
20:40	49.8	49.8	49.8	48	30.9	0	0	---	0.00	30.016 
20:45	49.4	49.4	49.4	48	30.5	0	0	---	0.00	30.014 
20:50	49.1	49.1	49.1	50	31.3	0	1	112	0.00	30.014 
20:55	49.1	49.1	49.1	49	30.8	0	1	112	0.00	30.014 
21:00	49.1	49.1	49.1	49	30.8	0	2	112	0.00	30.001 
21:05	49.2	49.2	49.2	48	30.4	1	3	112	0.00	30.001 
21:10	49.4	49.4	49.4	47	30.0	0	4	112	0.00	30.001 
21:15	49.5	49.5	49.5	47	30.1	0	1	112	0.00	29.999 
21:20	49.4	49.4	49.4	47	30.0	0	0	---	0.00	29.999 
21:25	48.9	48.9	48.9	48	30.1	0	0	---	0.00	29.999 
21:30	48.5	48.5	48.5	49	30.2	0	0	---	0.00	30.006 
21:35	47.9	47.9	47.9	50	30.2	0	0	---	0.00	30.006 
21:40	47.3	47.3	47.3	51	30.1	0	0	---	0.00	30.006 
21:45	46.8	46.8	46.8	52	30.1	0	0	---	0.00	30.010 
21:50	46.2	46.2	46.2	53	30.0	0	0	---	0.00	30.010 
21:55	46.0	46.0	46.0	54	30.3	0	0	---	0.00	30.010 
22:00	45.5	45.5	45.5	55	30.3	0	0	---	0.00	30.001 
22:05	45.1	45.1	45.1	58	31.2	0	0	---	0.00	30.001 
22:10	44.6	44.6	44.6	59	31.2	0	0	---	0.00	30.001 
22:15	44.3	44.3	44.3	60	31.3	0	1	112	0.00	29.987 
22:20	44.5	44.5	44.5	59	31.1	0	0	---	0.00	29.987 
22:25	44.8	44.8	44.8	58	30.9	0	0	---	0.00	29.987 
22:30	44.9	44.9	44.9	57	30.6	0	0	---	0.00	29.993 
22:35	45.2	45.2	45.2	55	30.0	0	1	112	0.00	29.993 
22:40	45.4	45.4	45.4	55	30.2	0	0	---	0.00	29.993 
22:45	45.5	45.5	45.5	54	29.8	0	0	---	0.00	29.993 
22:50	45.7	45.7	45.7	54	30.0	0	0	---	0.00	29.993 
22:55	45.8	45.8	45.8	54	30.1	0	0	---	0.00	29.993 
23:00	45.8	45.8	45.8	54	30.1	0	2	112	0.00	29.985 
23:05	46.1	46.1	46.1	52	29.5	0	1	112	0.00	29.985 
23:10	46.2	46.2	46.2	52	29.6	0	2	112	0.00	29.985 
23:15	46.4	46.4	46.4	53	30.2	0	0	---	0.00	29.981 
23:20	46.2	46.2	46.2	53	30.0	0	0	---	0.00	29.981 
23:25	46.1	46.1	46.1	54	30.4	0	1	112	0.00	29.981 
23:30	45.8	45.8	45.8	54	30.1	0	0	---	0.00	29.977 
23:35	45.7	45.7	45.7	54	30.0	0	1	112	0.00	29.977 
23:40	45.7	45.7	45.7	53	29.6	0	2	112	0.00	29.977 
23:45	46.0	46.0	46.0	51	28.9	1	3	112	0.00	29.972 
23:50	46.2	46.2	46.2	51	29.1	1	2	112	0.00	29.972 
23:55	46.5	46.5	46.5	50	28.9	0	2	112	0.00	29.972 

CoCoRaHS
IN-AL-39
A2 Web Hosting
Creative Commons License
GoDaddy
search engine by freefind advanced

loaded 2018-11-18 12:16:00 • last modified 2010-11-18 10:43:29
Privacy PolicyDisclaimer
• wx.awcolley.com is powered by PmWiki v.2002016 •
• all content (unless otherwise noted) © 2018 A W Colley